sensor_id;sensor_type;location;lat;lon;timestamp;P1;durP1;ratioP1;P2;durP2;ratioP2
35290;SDS011;21411;50.024;19.220;2023-05-15T00:00:43;7.90;;;7.30;;
35290;SDS011;21411;50.024;19.220;2023-05-15T00:03:28;6.30;;;5.80;;
35290;SDS011;21411;50.024;19.220;2023-05-15T00:05:55;6.20;;;5.60;;
35290;SDS011;21411;50.024;19.220;2023-05-15T00:08:22;5.40;;;4.90;;
35290;SDS011;21411;50.024;19.220;2023-05-15T00:10:48;5.70;;;5.20;;
35290;SDS011;21411;50.024;19.220;2023-05-15T00:13:18;5.40;;;4.90;;
35290;SDS011;21411;50.024;19.220;2023-05-15T00:15:45;5.20;;;4.60;;
35290;SDS011;21411;50.024;19.220;2023-05-15T00:18:12;6.60;;;4.10;;
35290;SDS011;21411;50.024;19.220;2023-05-15T00:20:38;5.10;;;4.60;;
35290;SDS011;21411;50.024;19.220;2023-05-15T00:23:05;5.30;;;4.80;;
35290;SDS011;21411;50.024;19.220;2023-05-15T00:25:31;6.60;;;5.60;;
35290;SDS011;21411;50.024;19.220;2023-05-15T00:27:58;5.70;;;5.20;;
35290;SDS011;21411;50.024;19.220;2023-05-15T00:30:24;7.10;;;6.40;;
35290;SDS011;21411;50.024;19.220;2023-05-15T00:32:51;5.40;;;4.90;;
35290;SDS011;21411;50.024;19.220;2023-05-15T00:35:17;6.80;;;5.40;;
35290;SDS011;21411;50.024;19.220;2023-05-15T00:37:44;5.60;;;5.10;;
35290;SDS011;21411;50.024;19.220;2023-05-15T00:40:10;6.10;;;5.50;;
35290;SDS011;21411;50.024;19.220;2023-05-15T00:42:40;5.90;;;5.30;;
35290;SDS011;21411;50.024;19.220;2023-05-15T00:45:07;6.40;;;5.90;;
35290;SDS011;21411;50.024;19.220;2023-05-15T00:47:36;6.30;;;5.80;;
35290;SDS011;21411;50.024;19.220;2023-05-15T00:50:06;6.70;;;5.90;;
35290;SDS011;21411;50.024;19.220;2023-05-15T00:52:33;7.20;;;6.40;;
35290;SDS011;21411;50.024;19.220;2023-05-15T00:55:01;6.60;;;6.00;;
35290;SDS011;21411;50.024;19.220;2023-05-15T00:57:29;7.10;;;6.10;;
35290;SDS011;21411;50.024;19.220;2023-05-15T00:59:57;7.20;;;5.80;;
35290;SDS011;21411;50.024;19.220;2023-05-15T01:02:25;7.20;;;6.30;;
35290;SDS011;21411;50.024;19.220;2023-05-15T01:04:52;7.00;;;6.30;;
35290;SDS011;21411;50.024;19.220;2023-05-15T01:07:18;7.00;;;6.40;;
35290;SDS011;21411;50.024;19.220;2023-05-15T01:09:45;8.20;;;6.90;;
35290;SDS011;21411;50.024;19.220;2023-05-15T01:12:13;6.80;;;6.30;;
35290;SDS011;21411;50.024;19.220;2023-05-15T01:14:41;6.80;;;6.10;;
35290;SDS011;21411;50.024;19.220;2023-05-15T01:17:08;6.10;;;5.60;;
35290;SDS011;21411;50.024;19.220;2023-05-15T01:19:35;6.30;;;5.70;;
35290;SDS011;21411;50.024;19.220;2023-05-15T01:32:17;6.80;;;6.10;;
35290;SDS011;21411;50.024;19.220;2023-05-15T01:34:56;7.10;;;6.50;;
35290;SDS011;21411;50.024;19.220;2023-05-15T01:37:28;6.60;;;6.00;;
35290;SDS011;21411;50.024;19.220;2023-05-15T01:39:59;6.40;;;5.80;;
35290;SDS011;21411;50.024;19.220;2023-05-15T01:44:59;6.30;;;5.70;;
35290;SDS011;21411;50.024;19.220;2023-05-15T01:47:32;7.00;;;6.30;;
35290;SDS011;21411;50.024;19.220;2023-05-15T01:50:02;7.10;;;6.50;;
35290;SDS011;21411;50.024;19.220;2023-05-15T01:52:32;7.30;;;6.60;;
35290;SDS011;21411;50.024;19.220;2023-05-15T01:55:01;7.10;;;6.60;;
35290;SDS011;21411;50.024;19.220;2023-05-15T01:57:29;7.30;;;6.60;;
35290;SDS011;21411;50.024;19.220;2023-05-15T01:59:57;8.20;;;7.10;;
35290;SDS011;21411;50.024;19.220;2023-05-15T02:02:25;7.70;;;7.10;;
35290;SDS011;21411;50.024;19.220;2023-05-15T02:04:53;7.20;;;6.70;;
35290;SDS011;21411;50.024;19.220;2023-05-15T02:07:20;7.50;;;6.80;;
35290;SDS011;21411;50.024;19.220;2023-05-15T02:09:49;7.50;;;6.90;;
35290;SDS011;21411;50.024;19.220;2023-05-15T02:12:18;8.50;;;7.40;;
35290;SDS011;21411;50.024;19.220;2023-05-15T02:14:47;8.00;;;7.30;;
35290;SDS011;21411;50.024;19.220;2023-05-15T02:17:15;9.30;;;8.50;;
35290;SDS011;21411;50.024;19.220;2023-05-15T02:19:42;9.20;;;8.30;;
35290;SDS011;21411;50.024;19.220;2023-05-15T02:22:09;10.50;;;9.60;;
35290;SDS011;21411;50.024;19.220;2023-05-15T02:24:35;9.80;;;8.40;;
35290;SDS011;21411;50.024;19.220;2023-05-15T02:27:12;9.60;;;8.10;;
35290;SDS011;21411;50.024;19.220;2023-05-15T02:29:45;8.70;;;7.90;;
35290;SDS011;21411;50.024;19.220;2023-05-15T02:32:46;8.80;;;8.00;;
35290;SDS011;21411;50.024;19.220;2023-05-15T02:37:48;11.10;;;10.10;;
35290;SDS011;21411;50.024;19.220;2023-05-15T02:40:16;10.10;;;9.10;;
35290;SDS011;21411;50.024;19.220;2023-05-15T02:42:45;9.50;;;8.60;;
35290;SDS011;21411;50.024;19.220;2023-05-15T02:45:13;10.20;;;9.20;;
35290;SDS011;21411;50.024;19.220;2023-05-15T02:47:40;9.10;;;8.30;;
35290;SDS011;21411;50.024;19.220;2023-05-15T02:50:07;9.60;;;8.60;;
35290;SDS011;21411;50.024;19.220;2023-05-15T02:52:35;9.50;;;8.60;;
35290;SDS011;21411;50.024;19.220;2023-05-15T02:55:01;8.70;;;7.80;;
35290;SDS011;21411;50.024;19.220;2023-05-15T02:57:28;11.50;;;10.40;;
35290;SDS011;21411;50.024;19.220;2023-05-15T02:59:55;10.50;;;9.60;;
35290;SDS011;21411;50.024;19.220;2023-05-15T03:02:22;9.20;;;8.20;;
35290;SDS011;21411;50.024;19.220;2023-05-15T03:04:49;10.60;;;9.70;;
35290;SDS011;21411;50.024;19.220;2023-05-15T03:07:15;9.60;;;8.90;;
35290;SDS011;21411;50.024;19.220;2023-05-15T03:09:42;9.60;;;8.80;;
35290;SDS011;21411;50.024;19.220;2023-05-15T03:12:08;9.50;;;8.70;;
35290;SDS011;21411;50.024;19.220;2023-05-15T03:14:36;9.00;;;8.20;;
35290;SDS011;21411;50.024;19.220;2023-05-15T03:17:02;10.10;;;9.20;;
35290;SDS011;21411;50.024;19.220;2023-05-15T03:19:29;10.60;;;9.70;;
35290;SDS011;21411;50.024;19.220;2023-05-15T03:21:56;11.60;;;10.60;;
35290;SDS011;21411;50.024;19.220;2023-05-15T03:24:22;11.20;;;10.30;;
35290;SDS011;21411;50.024;19.220;2023-05-15T03:26:49;9.50;;;8.70;;
35290;SDS011;21411;50.024;19.220;2023-05-15T03:29:15;11.00;;;10.00;;
35290;SDS011;21411;50.024;19.220;2023-05-15T03:31:42;10.30;;;9.30;;
35290;SDS011;21411;50.024;19.220;2023-05-15T03:34:08;11.10;;;10.10;;
35290;SDS011;21411;50.024;19.220;2023-05-15T03:36:35;12.20;;;11.00;;
35290;SDS011;21411;50.024;19.220;2023-05-15T03:39:01;10.80;;;9.80;;
35290;SDS011;21411;50.024;19.220;2023-05-15T03:41:28;10.80;;;9.80;;
35290;SDS011;21411;50.024;19.220;2023-05-15T03:43:54;11.20;;;10.20;;
35290;SDS011;21411;50.024;19.220;2023-05-15T03:46:21;11.80;;;10.70;;
35290;SDS011;21411;50.024;19.220;2023-05-15T03:48:47;12.00;;;10.90;;
35290;SDS011;21411;50.024;19.220;2023-05-15T03:51:14;10.70;;;9.80;;
35290;SDS011;21411;50.024;19.220;2023-05-15T03:53:40;11.70;;;10.60;;
35290;SDS011;21411;50.024;19.220;2023-05-15T03:56:07;11.20;;;10.10;;
35290;SDS011;21411;50.024;19.220;2023-05-15T03:58:33;12.40;;;10.40;;
35290;SDS011;21411;50.024;19.220;2023-05-15T04:01:00;11.60;;;10.40;;
35290;SDS011;21411;50.024;19.220;2023-05-15T04:03:27;12.20;;;11.20;;
35290;SDS011;21411;50.024;19.220;2023-05-15T04:05:53;10.50;;;9.60;;
35290;SDS011;21411;50.024;19.220;2023-05-15T04:08:20;12.40;;;11.30;;
35290;SDS011;21411;50.024;19.220;2023-05-15T04:10:46;11.30;;;10.30;;
35290;SDS011;21411;50.024;19.220;2023-05-15T04:13:13;11.40;;;10.40;;
35290;SDS011;21411;50.024;19.220;2023-05-15T04:15:39;11.40;;;10.40;;
35290;SDS011;21411;50.024;19.220;2023-05-15T04:18:06;10.80;;;9.80;;
35290;SDS011;21411;50.024;19.220;2023-05-15T04:20:32;10.00;;;9.10;;
35290;SDS011;21411;50.024;19.220;2023-05-15T04:22:59;10.30;;;9.50;;
35290;SDS011;21411;50.024;19.220;2023-05-15T04:25:26;10.70;;;9.70;;
35290;SDS011;21411;50.024;19.220;2023-05-15T04:27:53;9.50;;;8.70;;
35290;SDS011;21411;50.024;19.220;2023-05-15T04:30:21;9.80;;;8.90;;
35290;SDS011;21411;50.024;19.220;2023-05-15T04:32:47;10.10;;;9.30;;
35290;SDS011;21411;50.024;19.220;2023-05-15T04:35:14;10.30;;;9.30;;
35290;SDS011;21411;50.024;19.220;2023-05-15T04:37:41;11.50;;;10.20;;
35290;SDS011;21411;50.024;19.220;2023-05-15T04:40:08;11.30;;;10.30;;
35290;SDS011;21411;50.024;19.220;2023-05-15T04:42:35;12.00;;;10.90;;
35290;SDS011;21411;50.024;19.220;2023-05-15T04:45:02;15.20;;;13.90;;
35290;SDS011;21411;50.024;19.220;2023-05-15T04:47:29;10.20;;;9.30;;
35290;SDS011;21411;50.024;19.220;2023-05-15T04:49:56;10.80;;;9.90;;
35290;SDS011;21411;50.024;19.220;2023-05-15T04:52:22;11.00;;;10.00;;
35290;SDS011;21411;50.024;19.220;2023-05-15T04:54:49;12.30;;;11.20;;
35290;SDS011;21411;50.024;19.220;2023-05-15T04:57:18;11.00;;;10.00;;
35290;SDS011;21411;50.024;19.220;2023-05-15T04:59:44;10.80;;;9.80;;
35290;SDS011;21411;50.024;19.220;2023-05-15T05:02:11;10.20;;;9.40;;
35290;SDS011;21411;50.024;19.220;2023-05-15T05:04:37;8.30;;;7.60;;
35290;SDS011;21411;50.024;19.220;2023-05-15T05:07:04;7.80;;;7.20;;
35290;SDS011;21411;50.024;19.220;2023-05-15T05:09:31;8.20;;;7.50;;
35290;SDS011;21411;50.024;19.220;2023-05-15T05:11:57;10.00;;;9.10;;
35290;SDS011;21411;50.024;19.220;2023-05-15T05:14:25;10.50;;;9.60;;
35290;SDS011;21411;50.024;19.220;2023-05-15T05:16:52;9.20;;;8.50;;
35290;SDS011;21411;50.024;19.220;2023-05-15T05:19:18;8.40;;;7.60;;
35290;SDS011;21411;50.024;19.220;2023-05-15T05:21:45;8.60;;;7.80;;
35290;SDS011;21411;50.024;19.220;2023-05-15T05:24:11;10.20;;;9.30;;
35290;SDS011;21411;50.024;19.220;2023-05-15T05:26:38;10.10;;;9.20;;
35290;SDS011;21411;50.024;19.220;2023-05-15T05:29:04;10.00;;;9.00;;
35290;SDS011;21411;50.024;19.220;2023-05-15T05:31:31;9.80;;;8.90;;
35290;SDS011;21411;50.024;19.220;2023-05-15T05:33:57;10.50;;;9.60;;
35290;SDS011;21411;50.024;19.220;2023-05-15T05:36:24;9.00;;;8.20;;
35290;SDS011;21411;50.024;19.220;2023-05-15T05:38:50;9.30;;;8.50;;
35290;SDS011;21411;50.024;19.220;2023-05-15T05:41:17;7.60;;;6.90;;
35290;SDS011;21411;50.024;19.220;2023-05-15T05:43:43;12.80;;;11.80;;
35290;SDS011;21411;50.024;19.220;2023-05-15T05:46:10;8.50;;;7.80;;
35290;SDS011;21411;50.024;19.220;2023-05-15T05:48:36;10.70;;;9.80;;
35290;SDS011;21411;50.024;19.220;2023-05-15T05:51:03;9.80;;;9.00;;
35290;SDS011;21411;50.024;19.220;2023-05-15T05:53:29;8.30;;;7.60;;
35290;SDS011;21411;50.024;19.220;2023-05-15T05:55:56;10.30;;;9.40;;
35290;SDS011;21411;50.024;19.220;2023-05-15T05:58:22;8.50;;;7.80;;
35290;SDS011;21411;50.024;19.220;2023-05-15T06:00:49;7.10;;;6.60;;
35290;SDS011;21411;50.024;19.220;2023-05-15T06:03:15;7.40;;;6.80;;
35290;SDS011;21411;50.024;19.220;2023-05-15T06:05:42;7.10;;;6.60;;
35290;SDS011;21411;50.024;19.220;2023-05-15T06:08:08;7.90;;;7.20;;
35290;SDS011;21411;50.024;19.220;2023-05-15T06:10:35;7.50;;;6.90;;
35290;SDS011;21411;50.024;19.220;2023-05-15T06:13:01;9.30;;;8.40;;
35290;SDS011;21411;50.024;19.220;2023-05-15T06:15:28;8.20;;;7.40;;
35290;SDS011;21411;50.024;19.220;2023-05-15T06:17:54;8.00;;;7.40;;
35290;SDS011;21411;50.024;19.220;2023-05-15T06:20:21;9.60;;;8.70;;
35290;SDS011;21411;50.024;19.220;2023-05-15T06:22:48;8.20;;;7.40;;
35290;SDS011;21411;50.024;19.220;2023-05-15T06:25:14;7.90;;;7.20;;
35290;SDS011;21411;50.024;19.220;2023-05-15T06:27:41;8.50;;;7.90;;
35290;SDS011;21411;50.024;19.220;2023-05-15T06:30:08;7.90;;;7.30;;
35290;SDS011;21411;50.024;19.220;2023-05-15T06:32:35;9.00;;;8.20;;
35290;SDS011;21411;50.024;19.220;2023-05-15T06:35:02;7.90;;;7.20;;
35290;SDS011;21411;50.024;19.220;2023-05-15T06:37:28;9.30;;;8.50;;
35290;SDS011;21411;50.024;19.220;2023-05-15T06:39:55;7.30;;;6.70;;
35290;SDS011;21411;50.024;19.220;2023-05-15T06:42:22;7.90;;;7.30;;
35290;SDS011;21411;50.024;19.220;2023-05-15T06:44:48;8.00;;;7.30;;
35290;SDS011;21411;50.024;19.220;2023-05-15T06:47:15;8.60;;;8.00;;
35290;SDS011;21411;50.024;19.220;2023-05-15T06:49:41;11.20;;;10.30;;
35290;SDS011;21411;50.024;19.220;2023-05-15T06:52:08;8.60;;;7.90;;
35290;SDS011;21411;50.024;19.220;2023-05-15T06:54:35;10.10;;;9.30;;
35290;SDS011;21411;50.024;19.220;2023-05-15T06:57:01;9.30;;;8.60;;
35290;SDS011;21411;50.024;19.220;2023-05-15T06:59:28;7.70;;;7.00;;
35290;SDS011;21411;50.024;19.220;2023-05-15T07:01:54;7.90;;;7.20;;
35290;SDS011;21411;50.024;19.220;2023-05-15T07:04:21;7.20;;;6.70;;
35290;SDS011;21411;50.024;19.220;2023-05-15T07:06:47;7.60;;;6.90;;
35290;SDS011;21411;50.024;19.220;2023-05-15T07:09:14;8.70;;;8.10;;
35290;SDS011;21411;50.024;19.220;2023-05-15T07:11:40;8.60;;;8.00;;
35290;SDS011;21411;50.024;19.220;2023-05-15T07:14:07;7.70;;;7.20;;
35290;SDS011;21411;50.024;19.220;2023-05-15T07:16:33;7.30;;;6.70;;
35290;SDS011;21411;50.024;19.220;2023-05-15T07:19:00;7.70;;;6.50;;
35290;SDS011;21411;50.024;19.220;2023-05-15T07:21:27;6.80;;;6.30;;
35290;SDS011;21411;50.024;19.220;2023-05-15T07:23:53;6.90;;;6.40;;
35290;SDS011;21411;50.024;19.220;2023-05-15T07:26:19;6.20;;;5.70;;
35290;SDS011;21411;50.024;19.220;2023-05-15T07:28:46;6.50;;;5.90;;
35290;SDS011;21411;50.024;19.220;2023-05-15T07:31:13;6.10;;;5.20;;
35290;SDS011;21411;50.024;19.220;2023-05-15T07:33:39;5.70;;;5.20;;
35290;SDS011;21411;50.024;19.220;2023-05-15T07:36:05;5.10;;;4.80;;
35290;SDS011;21411;50.024;19.220;2023-05-15T07:38:32;5.10;;;4.80;;
35290;SDS011;21411;50.024;19.220;2023-05-15T07:40:59;5.80;;;5.30;;
35290;SDS011;21411;50.024;19.220;2023-05-15T07:43:25;7.90;;;5.20;;
35290;SDS011;21411;50.024;19.220;2023-05-15T07:45:52;5.10;;;4.80;;
35290;SDS011;21411;50.024;19.220;2023-05-15T07:48:19;5.40;;;4.90;;
35290;SDS011;21411;50.024;19.220;2023-05-15T07:50:46;5.20;;;4.80;;
35290;SDS011;21411;50.024;19.220;2023-05-15T07:53:13;5.00;;;4.60;;
35290;SDS011;21411;50.024;19.220;2023-05-15T07:55:42;4.70;;;4.40;;
35290;SDS011;21411;50.024;19.220;2023-05-15T07:58:09;5.30;;;4.90;;
35290;SDS011;21411;50.024;19.220;2023-05-15T08:00:36;5.80;;;5.40;;
35290;SDS011;21411;50.024;19.220;2023-05-15T08:03:03;5.10;;;4.70;;
35290;SDS011;21411;50.024;19.220;2023-05-15T08:05:29;5.60;;;5.20;;
35290;SDS011;21411;50.024;19.220;2023-05-15T08:07:56;5.70;;;5.30;;
35290;SDS011;21411;50.024;19.220;2023-05-15T08:10:22;5.10;;;4.70;;
35290;SDS011;21411;50.024;19.220;2023-05-15T08:12:49;4.90;;;4.60;;
35290;SDS011;21411;50.024;19.220;2023-05-15T08:15:16;5.40;;;5.00;;
35290;SDS011;21411;50.024;19.220;2023-05-15T08:17:42;5.50;;;5.10;;
35290;SDS011;21411;50.024;19.220;2023-05-15T08:20:09;4.90;;;4.50;;
35290;SDS011;21411;50.024;19.220;2023-05-15T08:22:36;5.70;;;5.30;;
35290;SDS011;21411;50.024;19.220;2023-05-15T08:25:03;5.30;;;4.90;;
35290;SDS011;21411;50.024;19.220;2023-05-15T08:27:31;6.20;;;5.70;;
35290;SDS011;21411;50.024;19.220;2023-05-15T08:29:58;5.70;;;5.30;;
35290;SDS011;21411;50.024;19.220;2023-05-15T08:32:24;5.90;;;5.40;;
35290;SDS011;21411;50.024;19.220;2023-05-15T08:34:52;6.40;;;5.90;;
35290;SDS011;21411;50.024;19.220;2023-05-15T08:37:18;4.90;;;4.60;;
35290;SDS011;21411;50.024;19.220;2023-05-15T08:39:45;4.90;;;4.60;;
35290;SDS011;21411;50.024;19.220;2023-05-15T08:44:54;4.80;;;4.30;;
35290;SDS011;21411;50.024;19.220;2023-05-15T08:47:21;5.20;;;3.80;;
35290;SDS011;21411;50.024;19.220;2023-05-15T08:52:25;2.90;;;2.70;;
35290;SDS011;21411;50.024;19.220;2023-05-15T08:54:52;3.50;;;3.30;;
35290;SDS011;21411;50.024;19.220;2023-05-15T08:57:19;3.40;;;3.10;;
35290;SDS011;21411;50.024;19.220;2023-05-15T08:59:47;3.10;;;2.90;;
35290;SDS011;21411;50.024;19.220;2023-05-15T09:02:14;4.10;;;3.40;;
35290;SDS011;21411;50.024;19.220;2023-05-15T09:04:41;3.30;;;2.50;;
35290;SDS011;21411;50.024;19.220;2023-05-15T09:07:07;3.10;;;2.90;;
35290;SDS011;21411;50.024;19.220;2023-05-15T09:09:35;5.70;;;4.50;;
35290;SDS011;21411;50.024;19.220;2023-05-15T09:12:02;4.00;;;2.90;;
35290;SDS011;21411;50.024;19.220;2023-05-15T09:14:29;3.90;;;3.60;;
35290;SDS011;21411;50.024;19.220;2023-05-15T09:16:56;4.00;;;2.70;;
35290;SDS011;21411;50.024;19.220;2023-05-15T09:19:22;4.00;;;3.00;;
35290;SDS011;21411;50.024;19.220;2023-05-15T09:21:49;5.50;;;3.00;;
35290;SDS011;21411;50.024;19.220;2023-05-15T09:24:19;3.10;;;2.80;;
35290;SDS011;21411;50.024;19.220;2023-05-15T09:27:07;3.10;;;2.50;;
35290;SDS011;21411;50.024;19.220;2023-05-15T09:29:35;4.10;;;2.50;;
35290;SDS011;21411;50.024;19.220;2023-05-15T09:32:03;4.10;;;1.90;;
35290;SDS011;21411;50.024;19.220;2023-05-15T09:34:33;5.30;;;2.70;;
35290;SDS011;21411;50.024;19.220;2023-05-15T09:37:02;3.60;;;3.20;;
35290;SDS011;21411;50.024;19.220;2023-05-15T09:39:32;3.50;;;3.20;;
35290;SDS011;21411;50.024;19.220;2023-05-15T09:42:05;3.00;;;2.80;;
35290;SDS011;21411;50.024;19.220;2023-05-15T09:44:43;3.20;;;3.00;;
35290;SDS011;21411;50.024;19.220;2023-05-15T09:47:11;3.10;;;2.90;;
35290;SDS011;21411;50.024;19.220;2023-05-15T09:49:39;3.70;;;3.40;;
35290;SDS011;21411;50.024;19.220;2023-05-15T09:52:08;3.40;;;3.10;;
35290;SDS011;21411;50.024;19.220;2023-05-15T09:54:36;3.40;;;3.20;;
35290;SDS011;21411;50.024;19.220;2023-05-15T09:57:10;3.00;;;2.80;;
35290;SDS011;21411;50.024;19.220;2023-05-15T09:59:44;3.40;;;3.20;;
35290;SDS011;21411;50.024;19.220;2023-05-15T10:02:22;2.90;;;2.60;;
35290;SDS011;21411;50.024;19.220;2023-05-15T10:04:54;3.00;;;2.70;;
35290;SDS011;21411;50.024;19.220;2023-05-15T10:07:32;3.20;;;3.00;;
35290;SDS011;21411;50.024;19.220;2023-05-15T10:10:00;3.20;;;3.00;;
35290;SDS011;21411;50.024;19.220;2023-05-15T10:12:29;3.40;;;3.10;;
35290;SDS011;21411;50.024;19.220;2023-05-15T10:14:58;2.90;;;2.70;;
35290;SDS011;21411;50.024;19.220;2023-05-15T10:17:26;3.10;;;2.90;;
35290;SDS011;21411;50.024;19.220;2023-05-15T10:19:53;3.00;;;2.70;;
35290;SDS011;21411;50.024;19.220;2023-05-15T10:22:25;3.00;;;2.70;;
35290;SDS011;21411;50.024;19.220;2023-05-15T10:27:40;3.20;;;3.00;;
35290;SDS011;21411;50.024;19.220;2023-05-15T10:30:08;3.40;;;3.20;;
35290;SDS011;21411;50.024;19.220;2023-05-15T10:32:36;4.30;;;3.90;;
35290;SDS011;21411;50.024;19.220;2023-05-15T10:35:02;4.30;;;4.00;;
35290;SDS011;21411;50.024;19.220;2023-05-15T10:37:29;5.20;;;4.80;;
35290;SDS011;21411;50.024;19.220;2023-05-15T10:39:56;4.80;;;4.20;;
35290;SDS011;21411;50.024;19.220;2023-05-15T10:42:24;5.00;;;4.40;;
35290;SDS011;21411;50.024;19.220;2023-05-15T10:44:52;4.60;;;4.30;;
35290;SDS011;21411;50.024;19.220;2023-05-15T10:47:19;5.10;;;4.70;;
35290;SDS011;21411;50.024;19.220;2023-05-15T10:49:45;5.90;;;5.40;;
35290;SDS011;21411;50.024;19.220;2023-05-15T10:52:12;5.40;;;4.90;;
35290;SDS011;21411;50.024;19.220;2023-05-15T10:54:39;3.70;;;3.50;;
35290;SDS011;21411;50.024;19.220;2023-05-15T10:57:05;4.20;;;3.60;;
35290;SDS011;21411;50.024;19.220;2023-05-15T10:59:32;5.20;;;3.80;;
35290;SDS011;21411;50.024;19.220;2023-05-15T11:04:46;3.60;;;3.40;;
35290;SDS011;21411;50.024;19.220;2023-05-15T11:07:14;3.80;;;3.50;;
35290;SDS011;21411;50.024;19.220;2023-05-15T11:09:41;3.90;;;3.60;;
35290;SDS011;21411;50.024;19.220;2023-05-15T11:12:08;3.80;;;3.50;;
35290;SDS011;21411;50.024;19.220;2023-05-15T11:14:38;4.30;;;3.30;;
35290;SDS011;21411;50.024;19.220;2023-05-15T11:17:10;4.30;;;4.00;;
35290;SDS011;21411;50.024;19.220;2023-05-15T11:19:58;4.30;;;4.00;;
35290;SDS011;21411;50.024;19.220;2023-05-15T11:24:54;4.80;;;4.40;;
35290;SDS011;21411;50.024;19.220;2023-05-15T11:32:53;5.80;;;5.30;;
35290;SDS011;21411;50.024;19.220;2023-05-15T11:37:53;5.10;;;4.70;;
35290;SDS011;21411;50.024;19.220;2023-05-15T11:40:31;4.80;;;4.00;;
35290;SDS011;21411;50.024;19.220;2023-05-15T11:43:30;6.00;;;4.40;;
35290;SDS011;21411;50.024;19.220;2023-05-15T11:46:07;4.60;;;4.20;;
35290;SDS011;21411;50.024;19.220;2023-05-15T11:48:39;5.10;;;4.70;;
35290;SDS011;21411;50.024;19.220;2023-05-15T11:53:45;5.60;;;5.10;;
35290;SDS011;21411;50.024;19.220;2023-05-15T11:56:17;5.90;;;5.40;;
35290;SDS011;21411;50.024;19.220;2023-05-15T11:58:54;6.30;;;5.70;;
35290;SDS011;21411;50.024;19.220;2023-05-15T12:01:22;6.80;;;6.30;;
35290;SDS011;21411;50.024;19.220;2023-05-15T12:03:49;7.00;;;6.20;;
35290;SDS011;21411;50.024;19.220;2023-05-15T12:06:17;7.10;;;6.40;;
35290;SDS011;21411;50.024;19.220;2023-05-15T12:08:43;7.80;;;6.50;;
35290;SDS011;21411;50.024;19.220;2023-05-15T12:11:17;7.80;;;7.00;;
35290;SDS011;21411;50.024;19.220;2023-05-15T12:13:49;7.90;;;7.00;;
35290;SDS011;21411;50.024;19.220;2023-05-15T12:16:26;6.30;;;5.70;;
35290;SDS011;21411;50.024;19.220;2023-05-15T12:18:53;6.60;;;6.00;;
35290;SDS011;21411;50.024;19.220;2023-05-15T12:21:22;7.60;;;6.70;;
35290;SDS011;21411;50.024;19.220;2023-05-15T12:23:49;7.40;;;6.40;;
35290;SDS011;21411;50.024;19.220;2023-05-15T12:26:17;8.00;;;7.20;;
35290;SDS011;21411;50.024;19.220;2023-05-15T12:28:47;8.20;;;7.50;;
35290;SDS011;21411;50.024;19.220;2023-05-15T12:31:15;10.90;;;9.20;;
35290;SDS011;21411;50.024;19.220;2023-05-15T12:33:43;9.80;;;8.80;;
35290;SDS011;21411;50.024;19.220;2023-05-15T12:36:10;9.50;;;8.20;;
35290;SDS011;21411;50.024;19.220;2023-05-15T12:38:36;8.70;;;8.00;;
35290;SDS011;21411;50.024;19.220;2023-05-15T12:41:04;7.50;;;6.70;;
35290;SDS011;21411;50.024;19.220;2023-05-15T12:43:31;5.90;;;5.40;;
35290;SDS011;21411;50.024;19.220;2023-05-15T12:45:57;6.10;;;5.50;;
35290;SDS011;21411;50.024;19.220;2023-05-15T12:48:30;5.20;;;4.70;;
35290;SDS011;21411;50.024;19.220;2023-05-15T12:51:03;6.00;;;5.40;;
35290;SDS011;21411;50.024;19.220;2023-05-15T12:53:31;4.80;;;4.40;;
35290;SDS011;21411;50.024;19.220;2023-05-15T12:56:01;4.10;;;3.80;;
35290;SDS011;21411;50.024;19.220;2023-05-15T12:58:28;5.50;;;4.20;;
35290;SDS011;21411;50.024;19.220;2023-05-15T13:00:55;4.10;;;3.80;;
35290;SDS011;21411;50.024;19.220;2023-05-15T13:03:22;3.40;;;3.20;;
35290;SDS011;21411;50.024;19.220;2023-05-15T13:05:50;4.20;;;3.00;;
35290;SDS011;21411;50.024;19.220;2023-05-15T13:08:17;6.30;;;3.20;;
35290;SDS011;21411;50.024;19.220;2023-05-15T13:10:45;3.00;;;2.80;;
35290;SDS011;21411;50.024;19.220;2023-05-15T13:13:12;3.90;;;2.60;;
35290;SDS011;21411;50.024;19.220;2023-05-15T13:15:41;2.70;;;2.50;;
35290;SDS011;21411;50.024;19.220;2023-05-15T13:18:09;3.30;;;2.80;;
35290;SDS011;21411;50.024;19.220;2023-05-15T13:20:38;3.50;;;3.20;;
35290;SDS011;21411;50.024;19.220;2023-05-15T13:23:07;4.20;;;3.90;;
35290;SDS011;21411;50.024;19.220;2023-05-15T13:25:34;5.00;;;4.20;;
35290;SDS011;21411;50.024;19.220;2023-05-15T13:28:01;5.40;;;2.80;;
35290;SDS011;21411;50.024;19.220;2023-05-15T13:30:33;3.40;;;1.80;;
35290;SDS011;21411;50.024;19.220;2023-05-15T13:33:00;2.50;;;2.30;;
35290;SDS011;21411;50.024;19.220;2023-05-15T13:35:27;2.60;;;2.10;;
35290;SDS011;21411;50.024;19.220;2023-05-15T13:37:54;4.60;;;1.90;;
35290;SDS011;21411;50.024;19.220;2023-05-15T13:40:21;3.60;;;1.60;;
35290;SDS011;21411;50.024;19.220;2023-05-15T13:42:48;4.20;;;1.80;;
35290;SDS011;21411;50.024;19.220;2023-05-15T13:45:15;1.90;;;1.80;;
35290;SDS011;21411;50.024;19.220;2023-05-15T13:47:42;2.40;;;1.90;;
35290;SDS011;21411;50.024;19.220;2023-05-15T13:50:10;6.60;;;2.40;;
35290;SDS011;21411;50.024;19.220;2023-05-15T13:52:38;2.20;;;1.70;;
35290;SDS011;21411;50.024;19.220;2023-05-15T13:55:05;2.20;;;2.00;;
35290;SDS011;21411;50.024;19.220;2023-05-15T13:57:35;1.80;;;1.70;;
35290;SDS011;21411;50.024;19.220;2023-05-15T14:00:06;3.30;;;1.70;;
35290;SDS011;21411;50.024;19.220;2023-05-15T14:02:39;2.10;;;1.90;;
35290;SDS011;21411;50.024;19.220;2023-05-15T14:05:10;3.50;;;1.70;;
35290;SDS011;21411;50.024;19.220;2023-05-15T14:07:38;2.20;;;1.80;;
35290;SDS011;21411;50.024;19.220;2023-05-15T14:10:05;3.30;;;1.60;;
35290;SDS011;21411;50.024;19.220;2023-05-15T14:12:33;2.00;;;1.60;;
35290;SDS011;21411;50.024;19.220;2023-05-15T14:15:00;4.50;;;2.00;;
35290;SDS011;21411;50.024;19.220;2023-05-15T14:17:27;3.30;;;2.00;;
35290;SDS011;21411;50.024;19.220;2023-05-15T14:19:53;3.70;;;2.10;;
35290;SDS011;21411;50.024;19.220;2023-05-15T14:22:20;3.00;;;2.00;;
35290;SDS011;21411;50.024;19.220;2023-05-15T14:24:50;3.30;;;1.70;;
35290;SDS011;21411;50.024;19.220;2023-05-15T14:27:17;2.60;;;2.40;;
35290;SDS011;21411;50.024;19.220;2023-05-15T14:29:43;3.50;;;2.90;;
35290;SDS011;21411;50.024;19.220;2023-05-15T14:32:10;3.00;;;2.70;;
35290;SDS011;21411;50.024;19.220;2023-05-15T14:34:36;4.70;;;2.50;;
35290;SDS011;21411;50.024;19.220;2023-05-15T14:37:03;3.20;;;2.00;;
35290;SDS011;21411;50.024;19.220;2023-05-15T14:39:30;2.70;;;2.20;;
35290;SDS011;21411;50.024;19.220;2023-05-15T14:41:56;2.30;;;2.00;;
35290;SDS011;21411;50.024;19.220;2023-05-15T14:44:23;2.00;;;1.70;;
35290;SDS011;21411;50.024;19.220;2023-05-15T14:47:03;2.40;;;1.90;;
35290;SDS011;21411;50.024;19.220;2023-05-15T14:49:33;2.80;;;2.00;;
35290;SDS011;21411;50.024;19.220;2023-05-15T14:52:01;2.30;;;1.50;;
35290;SDS011;21411;50.024;19.220;2023-05-15T14:54:28;3.20;;;2.00;;
35290;SDS011;21411;50.024;19.220;2023-05-15T14:56:54;2.40;;;1.70;;
35290;SDS011;21411;50.024;19.220;2023-05-15T14:59:21;2.80;;;1.70;;
35290;SDS011;21411;50.024;19.220;2023-05-15T15:01:47;3.70;;;2.10;;
35290;SDS011;21411;50.024;19.220;2023-05-15T15:04:14;5.30;;;1.90;;
35290;SDS011;21411;50.024;19.220;2023-05-15T15:06:40;3.30;;;1.80;;
35290;SDS011;21411;50.024;19.220;2023-05-15T15:09:07;4.40;;;1.90;;
35290;SDS011;21411;50.024;19.220;2023-05-15T15:11:33;3.70;;;2.30;;
35290;SDS011;21411;50.024;19.220;2023-05-15T15:14:00;3.10;;;2.00;;